METAR Data
IDs: Format: Raw Decoded Include TAF

Data at: 0226 UTC 19 Dec 2018

METAR for:KMRT (Marysville/Union Cnt, OH, US)
Text:KMRT 190215Z AUTO 00000KT 10SM CLR M03/M04 A3016 RMK AO2 T10301037
Temperature: -3.0°C ( 27°F)
Dewpoint: -3.7°C ( 25°F) [RH = 95%]
Pressure (altimeter):30.16 inches Hg (1021.4 mb)
Winds:calm
Visibility:10 or more sm (16+ km)
Ceiling:at least 12,000 feet AGL
Clouds:sky clear below 12,000 feet AGL
QC Flag:automated observation with no human augmentation